TimeEDT,TemperatureF,Dew PointF,Humidity,Sea Level PressureIn,VisibilityMPH,Wind Direction,Wind SpeedMPH,Gust SpeedMPH,PrecipitationIn,Events,Conditions,WindDirDegrees,DateUTC
12:54 AM,64.0,62.1,93,29.70,10.0,Calm,Calm,-,0.04,,Clear,0,2013-09-03 04:54:00
1:54 AM,62.1,61.0,96,29.70,10.0,South,3.5,-,N/A,,Clear,190,2013-09-03 05:54:00
2:54 AM,61.0,60.1,97,29.68,7.0,Calm,Calm,-,N/A,,Clear,0,2013-09-03 06:54:00
3:14 AM,60.8,60.8,100,29.76,7.0,Calm,Calm,-,N/A,,Partly Cloudy,0,2013-09-03 07:14:00
3:54 AM,62.1,60.1,93,29.69,10.0,SW,4.6,-,N/A,,Clear,230,2013-09-03 07:54:00
4:23 AM,60.8,60.8,100,29.76,9.0,South,3.5,-,N/A,,Mostly Cloudy,190,2013-09-03 08:23:00
4:54 AM,63.0,60.1,90,29.70,10.0,Calm,Calm,-,N/A,,Mostly Cloudy,0,2013-09-03 08:54:00
5:02 AM,62.6,60.8,94,29.77,10.0,Calm,Calm,-,N/A,,Scattered Clouds,0,2013-09-03 09:02:00
5:54 AM,61.0,60.1,97,29.71,9.0,SW,4.6,-,0.01,,Partly Cloudy,220,2013-09-03 09:54:00
6:14 AM,60.8,60.8,100,29.78,10.0,West,3.5,-,N/A,,Mostly Cloudy,270,2013-09-03 10:14:00
6:24 AM,60.8,60.8,100,29.77,8.0,Calm,Calm,-,N/A,,Scattered Clouds,0,2013-09-03 10:24:00
6:54 AM,63.0,61.0,93,29.73,10.0,WSW,4.6,-,N/A,,Mostly Cloudy,250,2013-09-03 10:54:00
7:54 AM,64.9,62.1,90,29.74,10.0,West,3.5,-,N/A,,Overcast,280,2013-09-03 11:54:00
8:19 AM,64.4,62.6,94,29.82,10.0,WNW,5.8,-,N/A,,Overcast,300,2013-09-03 12:19:00
8:54 AM,64.9,62.1,90,29.75,10.0,Calm,Calm,-,N/A,,Overcast,0,2013-09-03 12:54:00
9:54 AM,66.0,60.1,81,29.75,10.0,NNW,4.6,-,N/A,,Overcast,330,2013-09-03 13:54:00
10:54 AM,64.9,57.9,78,29.77,10.0,WNW,4.6,-,N/A,,Overcast,300,2013-09-03 14:54:00
11:54 AM,64.9,57.9,78,29.76,10.0,WNW,3.5,-,N/A,,Overcast,300,2013-09-03 15:54:00
12:24 PM,64.4,57.2,77,29.82,10.0,WNW,4.6,-,0.00,,Overcast,300,2013-09-03 16:24:00
12:54 PM,66.9,59.0,76,29.75,10.0,West,8.1,-,0.00,,Overcast,280,2013-09-03 16:54:00
1:05 PM,66.2,57.2,73,29.81,10.0,WNW,4.6,-,N/A,,Overcast,300,2013-09-03 17:05:00
1:43 PM,66.2,57.2,73,29.81,10.0,WNW,6.9,-,N/A,,Overcast,290,2013-09-03 17:43:00
1:54 PM,68.0,57.9,70,29.75,10.0,West,5.8,-,N/A,,Overcast,270,2013-09-03 17:54:00
2:54 PM,69.1,57.0,65,29.73,10.0,WNW,6.9,-,N/A,,Overcast,290,2013-09-03 18:54:00
3:54 PM,69.1,57.9,68,29.73,10.0,WNW,9.2,-,N/A,,Scattered Clouds,300,2013-09-03 19:54:00
4:54 PM,69.1,55.9,63,29.73,10.0,West,11.5,-,N/A,,Scattered Clouds,270,2013-09-03 20:54:00
5:54 PM,66.9,54.0,63,29.75,10.0,West,13.8,-,N/A,,Mostly Cloudy,280,2013-09-03 21:54:00
6:54 PM,64.9,55.0,70,29.76,10.0,WNW,8.1,-,N/A,,Overcast,290,2013-09-03 22:54:00
7:54 PM,63.0,55.0,75,29.78,10.0,West,6.9,-,N/A,,Overcast,280,2013-09-03 23:54:00
8:54 PM,61.0,54.0,78,29.81,10.0,West,8.1,-,N/A,,Scattered Clouds,280,2013-09-04 00:54:00
9:20 PM,60.8,53.6,77,29.87,10.0,NW,9.2,-,N/A,,Mostly Cloudy,310,2013-09-04 01:20:00
9:47 PM,60.8,53.6,77,29.87,10.0,WNW,9.2,-,N/A,,Scattered Clouds,300,2013-09-04 01:47:00
9:54 PM,60.1,54.0,80,29.82,10.0,WNW,9.2,-,N/A,,Partly Cloudy,290,2013-09-04 01:54:00
10:47 PM,59.0,53.6,82,29.87,10.0,West,8.1,-,N/A,,Mostly Cloudy,270,2013-09-04 02:47:00
10:54 PM,57.9,54.0,87,29.82,10.0,West,3.5,-,N/A,,Scattered Clouds,270,2013-09-04 02:54:00
11:41 PM,59.0,53.6,82,29.88,10.0,NW,3.5,-,N/A,,Mostly Cloudy,310,2013-09-04 03:41:00
11:54 PM,59.0,54.0,83,29.83,10.0,WNW,4.6,-,N/A,,Mostly Cloudy,300,2013-09-04 03:54:00